sensor_id;sensor_type;location;lat;lon;timestamp;pressure;altitude;pressure_sealevel;temperature;humidity
65553;BME280;52465;51.560;14.368;2023-01-28T00:02:18;101140.84;;;6.32;69.69
65553;BME280;52465;51.560;14.368;2023-01-28T00:04:45;101165.16;;;6.44;70.27
65553;BME280;52465;51.560;14.368;2023-01-28T00:07:13;101122.25;;;6.25;69.95
65553;BME280;52465;51.560;14.368;2023-01-28T00:09:38;101145.84;;;6.35;69.41
65553;BME280;52465;51.560;14.368;2023-01-28T00:12:06;101147.41;;;6.38;69.69
65553;BME280;52465;51.560;14.368;2023-01-28T00:14:32;101146.78;;;6.34;70.18
65553;BME280;52465;51.560;14.368;2023-01-28T00:16:58;101129.66;;;6.19;69.80
65553;BME280;52465;51.560;14.368;2023-01-28T00:19:23;101166.94;;;6.43;69.44
65553;BME280;52465;51.560;14.368;2023-01-28T00:21:49;101148.47;;;6.35;69.95
65553;BME280;52465;51.560;14.368;2023-01-28T00:24:14;101135.56;;;6.21;69.64
65553;BME280;52465;51.560;14.368;2023-01-28T00:26:40;101161.22;;;6.38;69.74
65553;BME280;52465;51.560;14.368;2023-01-28T00:29:06;101149.81;;;6.28;69.34
65553;BME280;52465;51.560;14.368;2023-01-28T00:31:32;101180.19;;;6.40;69.97
65553;BME280;52465;51.560;14.368;2023-01-28T00:33:59;101179.22;;;6.41;70.14
65553;BME280;52465;51.560;14.368;2023-01-28T00:36:28;101152.50;;;6.26;69.45
65553;BME280;52465;51.560;14.368;2023-01-28T00:38:57;101161.53;;;6.33;70.08
65553;BME280;52465;51.560;14.368;2023-01-28T00:41:26;101171.13;;;6.33;70.35
65553;BME280;52465;51.560;14.368;2023-01-28T00:43:53;101150.75;;;6.27;70.02
65553;BME280;52465;51.560;14.368;2023-01-28T00:46:20;101170.91;;;6.36;70.25
65553;BME280;52465;51.560;14.368;2023-01-28T00:48:46;101163.94;;;6.36;70.18
65553;BME280;52465;51.560;14.368;2023-01-28T00:51:14;101153.03;;;6.31;70.19
65553;BME280;52465;51.560;14.368;2023-01-28T00:53:41;101148.97;;;6.27;69.75
65553;BME280;52465;51.560;14.368;2023-01-28T00:56:10;101166.03;;;6.31;70.16
65553;BME280;52465;51.560;14.368;2023-01-28T00:58:37;101150.22;;;6.22;70.31
65553;BME280;52465;51.560;14.368;2023-01-28T01:01:11;101161.03;;;6.28;70.01
65553;BME280;52465;51.560;14.368;2023-01-28T01:03:37;101169.56;;;6.30;70.30
65553;BME280;52465;51.560;14.368;2023-01-28T01:06:03;101170.91;;;6.36;69.86
65553;BME280;52465;51.560;14.368;2023-01-28T01:08:29;101165.63;;;6.25;69.73
65553;BME280;52465;51.560;14.368;2023-01-28T01:11:02;101173.63;;;6.34;69.98
65553;BME280;52465;51.560;14.368;2023-01-28T01:13:29;101169.69;;;6.29;69.79
65553;BME280;52465;51.560;14.368;2023-01-28T01:16:08;101181.53;;;6.33;69.53
65553;BME280;52465;51.560;14.368;2023-01-28T01:18:35;101161.38;;;6.24;69.98
65553;BME280;52465;51.560;14.368;2023-01-28T01:21:01;101172.50;;;6.26;69.80
65553;BME280;52465;51.560;14.368;2023-01-28T01:23:29;101177.50;;;6.29;69.39
65553;BME280;52465;51.560;14.368;2023-01-28T01:25:55;101180.81;;;6.31;69.90
65553;BME280;52465;51.560;14.368;2023-01-28T01:28:21;101178.41;;;6.28;70.17
65553;BME280;52465;51.560;14.368;2023-01-28T01:30:49;101179.16;;;6.30;69.92
65553;BME280;52465;51.560;14.368;2023-01-28T01:33:15;101180.09;;;6.29;70.29
65553;BME280;52465;51.560;14.368;2023-01-28T01:35:41;101180.91;;;6.29;69.73
65553;BME280;52465;51.560;14.368;2023-01-28T01:38:07;101186.84;;;6.31;70.14
65553;BME280;52465;51.560;14.368;2023-01-28T01:40:33;101189.44;;;6.31;70.07
65553;BME280;52465;51.560;14.368;2023-01-28T01:42:58;101188.09;;;6.26;69.91
65553;BME280;52465;51.560;14.368;2023-01-28T01:45:24;101186.44;;;6.25;70.09
65553;BME280;52465;51.560;14.368;2023-01-28T01:48:02;101179.88;;;6.19;70.22
65553;BME280;52465;51.560;14.368;2023-01-28T01:50:46;101178.84;;;6.22;69.86
65553;BME280;52465;51.560;14.368;2023-01-28T01:53:16;101195.47;;;6.32;69.75
65553;BME280;52465;51.560;14.368;2023-01-28T01:55:49;101181.13;;;6.26;70.00
65553;BME280;52465;51.560;14.368;2023-01-28T01:58:17;101186.22;;;6.28;69.98
65553;BME280;52465;51.560;14.368;2023-01-28T02:00:44;101162.53;;;6.07;70.00
65553;BME280;52465;51.560;14.368;2023-01-28T02:03:11;101180.59;;;6.21;70.04
65553;BME280;52465;51.560;14.368;2023-01-28T02:05:37;101192.22;;;6.28;69.82
65553;BME280;52465;51.560;14.368;2023-01-28T02:08:03;101182.88;;;6.26;70.09
65553;BME280;52465;51.560;14.368;2023-01-28T02:11:03;101186.22;;;6.28;69.66
65553;BME280;52465;51.560;14.368;2023-01-28T02:13:37;101184.03;;;6.22;69.59
65553;BME280;52465;51.560;14.368;2023-01-28T02:16:04;101181.66;;;6.19;69.63
65553;BME280;52465;51.560;14.368;2023-01-28T02:18:31;101200.16;;;6.27;70.05
65553;BME280;52465;51.560;14.368;2023-01-28T02:21:21;101163.78;;;6.14;69.77
65553;BME280;52465;51.560;14.368;2023-01-28T02:27:09;101204.53;;;6.26;69.85
65553;BME280;52465;51.560;14.368;2023-01-28T02:29:49;101207.22;;;6.25;69.71
65553;BME280;52465;51.560;14.368;2023-01-28T02:32:38;101208.19;;;6.24;69.70
65553;BME280;52465;51.560;14.368;2023-01-28T02:35:14;101199.03;;;6.18;69.16
65553;BME280;52465;51.560;14.368;2023-01-28T02:37:56;101202.97;;;6.24;69.91
65553;BME280;52465;51.560;14.368;2023-01-28T02:40:27;101162.44;;;5.96;69.57
65553;BME280;52465;51.560;14.368;2023-01-28T02:42:55;101166.16;;;6.04;69.51
65553;BME280;52465;51.560;14.368;2023-01-28T02:45:26;101208.25;;;6.22;69.77
65553;BME280;52465;51.560;14.368;2023-01-28T02:48:06;101180.00;;;6.05;69.80
65553;BME280;52465;51.560;14.368;2023-01-28T02:59:02;101205.78;;;6.21;69.70
65553;BME280;52465;51.560;14.368;2023-01-28T03:02:05;101184.16;;;6.07;69.36
65553;BME280;52465;51.560;14.368;2023-01-28T03:04:46;101203.19;;;6.21;69.66
65553;BME280;52465;51.560;14.368;2023-01-28T03:07:18;101171.78;;;5.98;69.82
65553;BME280;52465;51.560;14.368;2023-01-28T03:09:46;101180.22;;;6.02;69.77
65553;BME280;52465;51.560;14.368;2023-01-28T03:12:21;101208.38;;;6.21;69.62
65553;BME280;52465;51.560;14.368;2023-01-28T03:15:19;101204.00;;;6.21;69.83
65553;BME280;52465;51.560;14.368;2023-01-28T03:18:12;101211.81;;;6.21;69.53
65553;BME280;52465;51.560;14.368;2023-01-28T03:21:12;101217.94;;;6.20;69.71
65553;BME280;52465;51.560;14.368;2023-01-28T03:24:11;101226.69;;;6.19;69.69
65553;BME280;52465;51.560;14.368;2023-01-28T03:27:05;101209.22;;;6.08;70.13
65553;BME280;52465;51.560;14.368;2023-01-28T03:29:56;101225.03;;;6.18;69.46
65553;BME280;52465;51.560;14.368;2023-01-28T03:32:42;101225.94;;;6.17;69.70
65553;BME280;52465;51.560;14.368;2023-01-28T03:35:29;101226.81;;;6.18;70.01
65553;BME280;52465;51.560;14.368;2023-01-28T03:38:15;101227.09;;;6.13;69.58
65553;BME280;52465;51.560;14.368;2023-01-28T03:40:48;101243.22;;;6.18;69.75
65553;BME280;52465;51.560;14.368;2023-01-28T03:43:15;101177.44;;;5.78;69.45
65553;BME280;52465;51.560;14.368;2023-01-28T03:45:41;101199.97;;;5.92;69.86
65553;BME280;52465;51.560;14.368;2023-01-28T03:48:06;101199.84;;;5.93;69.13
65553;BME280;52465;51.560;14.368;2023-01-28T03:50:34;101189.13;;;5.85;69.51
65553;BME280;52465;51.560;14.368;2023-01-28T03:53:03;101235.72;;;6.14;70.16
65553;BME280;52465;51.560;14.368;2023-01-28T03:55:38;101234.06;;;6.13;69.05
65553;BME280;52465;51.560;14.368;2023-01-28T03:58:04;101188.91;;;5.88;70.08
65553;BME280;52465;51.560;14.368;2023-01-28T04:00:33;101229.72;;;6.13;70.05
65553;BME280;52465;51.560;14.368;2023-01-28T04:03:03;101228.34;;;6.07;69.52
65553;BME280;52465;51.560;14.368;2023-01-28T04:05:29;101219.28;;;6.00;69.29
65553;BME280;52465;51.560;14.368;2023-01-28T04:07:55;101246.97;;;6.14;69.86
65553;BME280;52465;51.560;14.368;2023-01-28T04:10:20;101202.00;;;5.87;69.73
65553;BME280;52465;51.560;14.368;2023-01-28T04:12:46;101251.22;;;6.15;69.81
65553;BME280;52465;51.560;14.368;2023-01-28T04:15:17;101246.31;;;6.10;69.57
65553;BME280;52465;51.560;14.368;2023-01-28T04:17:44;101243.00;;;6.08;69.82
65553;BME280;52465;51.560;14.368;2023-01-28T04:20:10;101253.81;;;6.15;69.74
65553;BME280;52465;51.560;14.368;2023-01-28T04:22:36;101249.97;;;6.08;69.84
65553;BME280;52465;51.560;14.368;2023-01-28T04:25:02;101241.03;;;5.99;69.41
65553;BME280;52465;51.560;14.368;2023-01-28T04:27:27;101239.47;;;5.97;69.88
65553;BME280;52465;51.560;14.368;2023-01-28T04:29:53;101256.72;;;6.10;70.08
65553;BME280;52465;51.560;14.368;2023-01-28T04:32:21;101261.22;;;6.08;69.55
65553;BME280;52465;51.560;14.368;2023-01-28T04:34:49;101245.38;;;5.99;69.52
65553;BME280;52465;51.560;14.368;2023-01-28T04:37:15;101267.94;;;6.11;69.71
65553;BME280;52465;51.560;14.368;2023-01-28T04:39:41;101248.81;;;5.99;69.68
65553;BME280;52465;51.560;14.368;2023-01-28T04:42:06;101274.72;;;6.14;69.51
65553;BME280;52465;51.560;14.368;2023-01-28T04:44:32;101253.47;;;5.94;69.85
65553;BME280;52465;51.560;14.368;2023-01-28T04:46:57;101249.22;;;5.93;69.46
65553;BME280;52465;51.560;14.368;2023-01-28T04:49:23;101258.19;;;6.02;69.29
65553;BME280;52465;51.560;14.368;2023-01-28T04:51:49;101239.31;;;5.86;69.40
65553;BME280;52465;51.560;14.368;2023-01-28T04:54:15;101270.13;;;6.04;69.59
65553;BME280;52465;51.560;14.368;2023-01-28T04:56:43;101267.66;;;6.03;69.67
65553;BME280;52465;51.560;14.368;2023-01-28T04:59:09;101275.88;;;6.09;69.56
65553;BME280;52465;51.560;14.368;2023-01-28T05:01:34;101231.81;;;5.81;69.86
65553;BME280;52465;51.560;14.368;2023-01-28T05:04:00;101275.16;;;6.07;69.73
65553;BME280;52465;51.560;14.368;2023-01-28T05:06:30;101276.69;;;6.10;69.48
65553;BME280;52465;51.560;14.368;2023-01-28T05:08:56;101235.50;;;5.91;69.41
65553;BME280;52465;51.560;14.368;2023-01-28T05:11:22;101272.84;;;6.03;69.78
65553;BME280;52465;51.560;14.368;2023-01-28T05:13:48;101278.75;;;6.05;69.59
65553;BME280;52465;51.560;14.368;2023-01-28T05:16:13;101276.47;;;6.00;69.91
65553;BME280;52465;51.560;14.368;2023-01-28T05:18:39;101265.47;;;5.97;69.72
65553;BME280;52465;51.560;14.368;2023-01-28T05:21:04;101296.66;;;6.09;69.51
65553;BME280;52465;51.560;14.368;2023-01-28T05:23:30;101291.47;;;6.09;69.66
65553;BME280;52465;51.560;14.368;2023-01-28T05:25:56;101265.31;;;5.86;69.42
65553;BME280;52465;51.560;14.368;2023-01-28T05:28:22;101269.19;;;5.93;69.80
65553;BME280;52465;51.560;14.368;2023-01-28T05:30:51;101287.81;;;5.99;69.71
65553;BME280;52465;51.560;14.368;2023-01-28T05:33:16;101284.25;;;6.00;69.45
65553;BME280;52465;51.560;14.368;2023-01-28T05:35:42;101305.41;;;6.08;69.69
65553;BME280;52465;51.560;14.368;2023-01-28T05:38:08;101287.63;;;6.02;69.19
65553;BME280;52465;51.560;14.368;2023-01-28T05:40:34;101310.78;;;6.05;69.44
65553;BME280;52465;51.560;14.368;2023-01-28T05:42:59;101298.00;;;6.02;69.46
65553;BME280;52465;51.560;14.368;2023-01-28T05:45:25;101308.81;;;6.09;69.30
65553;BME280;52465;51.560;14.368;2023-01-28T05:47:50;101307.34;;;6.05;69.70
65553;BME280;52465;51.560;14.368;2023-01-28T05:50:16;101297.25;;;6.00;69.86
65553;BME280;52465;51.560;14.368;2023-01-28T05:52:41;101299.13;;;5.98;69.57
65553;BME280;52465;51.560;14.368;2023-01-28T05:55:07;101301.75;;;5.98;69.09
65553;BME280;52465;51.560;14.368;2023-01-28T05:57:33;101302.69;;;5.97;69.42
65553;BME280;52465;51.560;14.368;2023-01-28T05:59:59;101310.06;;;6.03;69.33
65553;BME280;52465;51.560;14.368;2023-01-28T06:02:25;101315.16;;;6.05;69.62
65553;BME280;52465;51.560;14.368;2023-01-28T06:04:50;101306.94;;;5.98;69.61
65553;BME280;52465;51.560;14.368;2023-01-28T06:07:16;101321.41;;;6.02;69.76
65553;BME280;52465;51.560;14.368;2023-01-28T06:09:45;101310.59;;;5.96;69.63
65553;BME280;52465;51.560;14.368;2023-01-28T06:12:14;101321.59;;;5.99;69.42
65553;BME280;52465;51.560;14.368;2023-01-28T06:14:43;101298.25;;;5.85;69.22
65553;BME280;52465;51.560;14.368;2023-01-28T06:17:10;101335.94;;;6.05;69.31
65553;BME280;52465;51.560;14.368;2023-01-28T06:19:36;101296.59;;;5.84;69.38
65553;BME280;52465;51.560;14.368;2023-01-28T06:22:01;101307.81;;;5.84;69.34
65553;BME280;52465;51.560;14.368;2023-01-28T06:24:27;101332.00;;;5.99;69.65
65553;BME280;52465;51.560;14.368;2023-01-28T06:26:52;101333.03;;;5.97;69.33
65553;BME280;52465;51.560;14.368;2023-01-28T06:29:20;101342.31;;;6.01;69.30
65553;BME280;52465;51.560;14.368;2023-01-28T06:31:46;101322.09;;;5.92;69.49
65553;BME280;52465;51.560;14.368;2023-01-28T06:34:15;101340.09;;;5.95;69.34
65553;BME280;52465;51.560;14.368;2023-01-28T06:36:41;101345.81;;;6.00;69.60
65553;BME280;52465;51.560;14.368;2023-01-28T06:39:10;101307.38;;;5.78;69.67
65553;BME280;52465;51.560;14.368;2023-01-28T06:41:35;101329.53;;;5.83;69.43
65553;BME280;52465;51.560;14.368;2023-01-28T06:44:01;101349.25;;;6.00;69.32
65553;BME280;52465;51.560;14.368;2023-01-28T06:46:27;101341.13;;;5.92;69.40
65553;BME280;52465;51.560;14.368;2023-01-28T06:48:53;101352.34;;;5.93;69.95
65553;BME280;52465;51.560;14.368;2023-01-28T06:51:18;101357.97;;;5.99;69.38
65553;BME280;52465;51.560;14.368;2023-01-28T06:53:44;101331.50;;;5.80;69.76
65553;BME280;52465;51.560;14.368;2023-01-28T06:56:10;101344.00;;;5.88;68.93
65553;BME280;52465;51.560;14.368;2023-01-28T06:58:39;101335.03;;;5.79;69.24
65553;BME280;52465;51.560;14.368;2023-01-28T07:01:04;101360.16;;;5.93;69.11
65553;BME280;52465;51.560;14.368;2023-01-28T07:03:30;101352.16;;;5.96;69.46
65553;BME280;52465;51.560;14.368;2023-01-28T07:05:56;101343.38;;;5.84;69.14
65553;BME280;52465;51.560;14.368;2023-01-28T07:08:24;101358.38;;;5.93;69.27
65553;BME280;52465;51.560;14.368;2023-01-28T07:10:50;101372.63;;;6.00;69.00
65553;BME280;52465;51.560;14.368;2023-01-28T07:13:16;101323.34;;;5.72;69.31
65553;BME280;52465;51.560;14.368;2023-01-28T07:15:42;101336.81;;;5.78;69.61
65553;BME280;52465;51.560;14.368;2023-01-28T07:18:08;101348.47;;;5.86;69.50
65553;BME280;52465;51.560;14.368;2023-01-28T07:20:36;101350.31;;;5.83;68.96
65553;BME280;52465;51.560;14.368;2023-01-28T07:23:04;101370.25;;;5.97;69.35
65553;BME280;52465;51.560;14.368;2023-01-28T07:25:30;101368.78;;;5.93;69.20
65553;BME280;52465;51.560;14.368;2023-01-28T07:27:55;101367.19;;;5.91;68.99
65553;BME280;52465;51.560;14.368;2023-01-28T07:30:21;101363.00;;;5.88;69.28
65553;BME280;52465;51.560;14.368;2023-01-28T07:32:55;101351.34;;;5.81;69.21
65553;BME280;52465;51.560;14.368;2023-01-28T07:35:21;101349.59;;;5.81;69.17
65553;BME280;52465;51.560;14.368;2023-01-28T07:37:52;101389.09;;;6.01;69.31
65553;BME280;52465;51.560;14.368;2023-01-28T07:40:17;101350.81;;;5.76;69.04
65553;BME280;52465;51.560;14.368;2023-01-28T07:42:43;101388.22;;;6.00;69.22
65553;BME280;52465;51.560;14.368;2023-01-28T07:45:09;101363.94;;;5.87;69.27
65553;BME280;52465;51.560;14.368;2023-01-28T07:47:36;101360.81;;;5.82;69.37
65553;BME280;52465;51.560;14.368;2023-01-28T07:50:01;101362.69;;;5.80;69.12
65553;BME280;52465;51.560;14.368;2023-01-28T07:52:27;101377.84;;;6.00;69.57
65553;BME280;52465;51.560;14.368;2023-01-28T07:55:00;101380.84;;;5.94;68.98
65553;BME280;52465;51.560;14.368;2023-01-28T07:57:25;101351.47;;;5.79;69.45
65553;BME280;52465;51.560;14.368;2023-01-28T07:59:57;101359.78;;;5.84;69.32
65553;BME280;52465;51.560;14.368;2023-01-28T08:02:24;101353.22;;;5.79;69.23
65553;BME280;52465;51.560;14.368;2023-01-28T08:04:52;101388.16;;;6.02;69.45
65553;BME280;52465;51.560;14.368;2023-01-28T08:07:21;101366.13;;;5.80;69.38
65553;BME280;52465;51.560;14.368;2023-01-28T08:09:46;101387.81;;;5.94;69.64
65553;BME280;52465;51.560;14.368;2023-01-28T08:12:12;101361.84;;;5.79;69.29
65553;BME280;52465;51.560;14.368;2023-01-28T08:14:40;101361.56;;;5.84;69.08
65553;BME280;52465;51.560;14.368;2023-01-28T08:17:05;101377.66;;;5.89;69.36
65553;BME280;52465;51.560;14.368;2023-01-28T08:19:31;101385.47;;;5.89;69.39
65553;BME280;52465;51.560;14.368;2023-01-28T08:21:56;101395.41;;;5.97;69.25
65553;BME280;52465;51.560;14.368;2023-01-28T08:24:22;101400.41;;;6.00;69.17
65553;BME280;52465;51.560;14.368;2023-01-28T08:26:47;101376.84;;;5.89;69.36
65553;BME280;52465;51.560;14.368;2023-01-28T08:29:13;101396.97;;;5.99;69.07
65553;BME280;52465;51.560;14.368;2023-01-28T08:31:39;101385.97;;;5.96;69.43
65553;BME280;52465;51.560;14.368;2023-01-28T08:34:04;101387.06;;;5.92;69.03
65553;BME280;52465;51.560;14.368;2023-01-28T08:36:30;101396.97;;;5.99;69.38
65553;BME280;52465;51.560;14.368;2023-01-28T08:38:56;101392.59;;;6.00;69.10
65553;BME280;52465;51.560;14.368;2023-01-28T08:41:22;101399.50;;;6.01;69.14
65553;BME280;52465;51.560;14.368;2023-01-28T08:43:48;101403.09;;;5.98;68.96
65553;BME280;52465;51.560;14.368;2023-01-28T08:46:17;101407.28;;;6.01;69.30
65553;BME280;52465;51.560;14.368;2023-01-28T08:48:42;101398.63;;;6.00;69.25
65553;BME280;52465;51.560;14.368;2023-01-28T08:51:08;101392.28;;;5.92;69.39
65553;BME280;52465;51.560;14.368;2023-01-28T08:53:37;101365.28;;;5.80;69.19
65553;BME280;52465;51.560;14.368;2023-01-28T08:56:04;101373.50;;;5.87;69.17
65553;BME280;52465;51.560;14.368;2023-01-28T08:58:30;101389.56;;;5.93;69.13
65553;BME280;52465;51.560;14.368;2023-01-28T09:00:56;101386.41;;;5.88;68.94
65553;BME280;52465;51.560;14.368;2023-01-28T09:03:22;101409.44;;;5.94;69.13
65553;BME280;52465;51.560;14.368;2023-01-28T09:05:48;101396.53;;;5.93;68.93
65553;BME280;52465;51.560;14.368;2023-01-28T09:08:15;101395.78;;;5.91;69.12
65553;BME280;52465;51.560;14.368;2023-01-28T09:10:41;101422.25;;;5.97;69.22
65553;BME280;52465;51.560;14.368;2023-01-28T09:13:11;101390.34;;;5.81;68.76
65553;BME280;52465;51.560;14.368;2023-01-28T09:15:37;101424.63;;;6.00;69.31
65553;BME280;52465;51.560;14.368;2023-01-28T09:18:03;101415.81;;;5.89;69.30
65553;BME280;52465;51.560;14.368;2023-01-28T09:20:29;101412.38;;;5.88;69.09
65553;BME280;52465;51.560;14.368;2023-01-28T09:22:54;101427.63;;;5.94;68.88
65553;BME280;52465;51.560;14.368;2023-01-28T09:25:20;101426.59;;;5.97;69.20
65553;BME280;52465;51.560;14.368;2023-01-28T09:27:46;101430.97;;;5.96;69.10
65553;BME280;52465;51.560;14.368;2023-01-28T09:30:11;101433.47;;;5.98;69.24
65553;BME280;52465;51.560;14.368;2023-01-28T09:32:38;101430.31;;;5.93;68.88
65553;BME280;52465;51.560;14.368;2023-01-28T09:35:04;101432.53;;;5.99;69.08
65553;BME280;52465;51.560;14.368;2023-01-28T09:37:30;101426.78;;;5.94;69.10
65553;BME280;52465;51.560;14.368;2023-01-28T09:39:56;101419.63;;;5.83;68.92
65553;BME280;52465;51.560;14.368;2023-01-28T09:42:46;101434.28;;;5.98;68.98
65553;BME280;52465;51.560;14.368;2023-01-28T09:45:21;101435.97;;;5.99;69.20
65553;BME280;52465;51.560;14.368;2023-01-28T09:47:53;101376.66;;;5.65;68.92
65553;BME280;52465;51.560;14.368;2023-01-28T09:53:04;101401.22;;;5.73;69.02
65553;BME280;52465;51.560;14.368;2023-01-28T09:55:37;101443.88;;;5.98;69.15
65553;BME280;52465;51.560;14.368;2023-01-28T09:58:10;101444.03;;;5.95;69.12
65553;BME280;52465;51.560;14.368;2023-01-28T10:03:35;101443.88;;;5.98;68.94
65553;BME280;52465;51.560;14.368;2023-01-28T10:06:25;101436.72;;;5.87;69.50
65553;BME280;52465;51.560;14.368;2023-01-28T10:09:00;101452.50;;;5.98;68.97
65553;BME280;52465;51.560;14.368;2023-01-28T10:11:50;101448.22;;;5.97;69.20
65553;BME280;52465;51.560;14.368;2023-01-28T10:14:31;101426.06;;;5.77;68.69
65553;BME280;52465;51.560;14.368;2023-01-28T10:17:21;101460.28;;;5.98;68.98
65553;BME280;52465;51.560;14.368;2023-01-28T10:20:00;101453.44;;;5.97;69.08
65553;BME280;52465;51.560;14.368;2023-01-28T10:22:37;101440.97;;;5.88;68.96
65553;BME280;52465;51.560;14.368;2023-01-28T10:25:14;101412.84;;;5.68;69.16
65553;BME280;52465;51.560;14.368;2023-01-28T10:27:42;101461.22;;;5.97;69.02
65553;BME280;52465;51.560;14.368;2023-01-28T10:33:19;101450.34;;;5.91;69.10
65553;BME280;52465;51.560;14.368;2023-01-28T10:35:46;101438.59;;;5.85;68.84
65553;BME280;52465;51.560;14.368;2023-01-28T10:38:18;101450.28;;;5.92;68.83
65553;BME280;52465;51.560;14.368;2023-01-28T10:40:44;101447.69;;;5.92;69.12
65553;BME280;52465;51.560;14.368;2023-01-28T10:43:15;101441.19;;;5.85;68.82
65553;BME280;52465;51.560;14.368;2023-01-28T10:50:53;101412.06;;;5.66;68.69
65553;BME280;52465;51.560;14.368;2023-01-28T10:56:30;101448.16;;;5.84;68.98
65553;BME280;52465;51.560;14.368;2023-01-28T10:59:00;101445.34;;;5.88;69.64
65553;BME280;52465;51.560;14.368;2023-01-28T11:01:41;101461.50;;;5.93;69.14
65553;BME280;52465;51.560;14.368;2023-01-28T11:04:16;101444.78;;;5.82;68.84
65553;BME280;52465;51.560;14.368;2023-01-28T11:06:52;101447.09;;;5.87;68.90
65553;BME280;52465;51.560;14.368;2023-01-28T11:09:45;101452.59;;;5.97;69.27
65553;BME280;52465;51.560;14.368;2023-01-28T11:12:19;101456.97;;;5.96;68.90
65553;BME280;52465;51.560;14.368;2023-01-28T11:15:02;101456.31;;;5.93;68.91
65553;BME280;52465;51.560;14.368;2023-01-28T11:17:33;101461.22;;;5.97;68.59
65553;BME280;52465;51.560;14.368;2023-01-28T11:20:08;101452.69;;;5.95;68.95
65553;BME280;52465;51.560;14.368;2023-01-28T11:22:58;101440.03;;;5.89;69.48
65553;BME280;52465;51.560;14.368;2023-01-28T11:27:54;101428.47;;;5.80;69.01
65553;BME280;52465;51.560;14.368;2023-01-28T11:30:24;101412.53;;;5.72;69.18
65553;BME280;52465;51.560;14.368;2023-01-28T11:33:15;101440.53;;;5.96;69.06
65553;BME280;52465;51.560;14.368;2023-01-28T11:38:52;101451.75;;;5.96;68.95
65553;BME280;52465;51.560;14.368;2023-01-28T11:41:24;101436.59;;;5.89;68.73
65553;BME280;52465;51.560;14.368;2023-01-28T11:43:50;101427.63;;;5.94;69.19
65553;BME280;52465;51.560;14.368;2023-01-28T11:48:53;101441.38;;;5.96;69.04
65553;BME280;52465;51.560;14.368;2023-01-28T11:57:23;101428.19;;;5.85;68.32
65553;BME280;52465;51.560;14.368;2023-01-28T12:08:36;101404.25;;;5.80;68.86
65553;BME280;52465;51.560;14.368;2023-01-28T12:14:23;101425.78;;;5.96;69.11
65553;BME280;52465;51.560;14.368;2023-01-28T12:17:04;101409.63;;;5.91;68.75
65553;BME280;52465;51.560;14.368;2023-01-28T12:30:45;101407.75;;;5.93;68.81
65553;BME280;52465;51.560;14.368;2023-01-28T12:33:48;101409.53;;;5.93;68.88
65553;BME280;52465;51.560;14.368;2023-01-28T12:41:26;101392.63;;;5.86;68.71
65553;BME280;52465;51.560;14.368;2023-01-28T12:43:59;101355.97;;;5.63;68.80
65553;BME280;52465;51.560;14.368;2023-01-28T12:46:50;101375.13;;;5.75;68.52
65553;BME280;52465;51.560;14.368;2023-01-28T12:49:44;101404.69;;;5.87;69.02
65553;BME280;52465;51.560;14.368;2023-01-28T12:52:17;101397.72;;;5.87;68.90
65553;BME280;52465;51.560;14.368;2023-01-28T12:57:27;101383.09;;;5.72;68.82
65553;BME280;52465;51.560;14.368;2023-01-28T13:02:34;101399.50;;;5.87;68.56
65553;BME280;52465;51.560;14.368;2023-01-28T13:05:09;101404.69;;;5.87;68.53
65553;BME280;52465;51.560;14.368;2023-01-28T13:10:24;101389.09;;;5.87;68.63
65553;BME280;52465;51.560;14.368;2023-01-28T13:12:52;101395.97;;;5.88;68.83
65553;BME280;52465;51.560;14.368;2023-01-28T13:15:18;101381.81;;;5.79;68.56
65553;BME280;52465;51.560;14.368;2023-01-28T13:18:01;101397.63;;;5.89;68.61
65553;BME280;52465;51.560;14.368;2023-01-28T13:20:36;101396.78;;;5.88;68.40
65553;BME280;52465;51.560;14.368;2023-01-28T13:23:18;101397.72;;;5.87;68.85
65553;BME280;52465;51.560;14.368;2023-01-28T13:28:48;101394.59;;;5.82;68.32
65553;BME280;52465;51.560;14.368;2023-01-28T13:31:17;101396.34;;;5.81;68.74
65553;BME280;52465;51.560;14.368;2023-01-28T13:33:47;101421.13;;;5.87;68.63
65553;BME280;52465;51.560;14.368;2023-01-28T13:36:25;101414.97;;;5.88;68.31
65553;BME280;52465;51.560;14.368;2023-01-28T13:41:42;101378.03;;;5.70;68.15
65553;BME280;52465;51.560;14.368;2023-01-28T13:46:45;101414.38;;;5.84;68.63
65553;BME280;52465;51.560;14.368;2023-01-28T13:49:17;101403.44;;;5.79;68.40
65553;BME280;52465;51.560;14.368;2023-01-28T13:54:37;101417.78;;;5.85;68.47
65553;BME280;52465;51.560;14.368;2023-01-28T14:03:07;101433.19;;;5.88;68.57
65553;BME280;52465;51.560;14.368;2023-01-28T14:20:00;101409.84;;;5.74;68.68
65553;BME280;52465;51.560;14.368;2023-01-28T14:22:29;101423.81;;;5.86;68.40
65553;BME280;52465;51.560;14.368;2023-01-28T14:24:59;101398.63;;;5.73;68.19
65553;BME280;52465;51.560;14.368;2023-01-28T14:27:37;101417.25;;;5.80;68.41
65553;BME280;52465;51.560;14.368;2023-01-28T14:30:23;101434.13;;;5.87;68.53
65553;BME280;52465;51.560;14.368;2023-01-28T14:32:53;101431.06;;;5.80;68.25
65553;BME280;52465;51.560;14.368;2023-01-28T14:35:31;101436.81;;;5.86;68.13
65553;BME280;52465;51.560;14.368;2023-01-28T14:38:04;101381.50;;;5.56;68.64
65553;BME280;52465;51.560;14.368;2023-01-28T14:40:32;101413.53;;;5.84;68.59
65553;BME280;52465;51.560;14.368;2023-01-28T14:43:01;101425.38;;;5.88;68.31
65553;BME280;52465;51.560;14.368;2023-01-28T14:48:55;101417.78;;;5.85;68.57
65553;BME280;52465;51.560;14.368;2023-01-28T14:57:31;101415.09;;;5.87;68.41
65553;BME280;52465;51.560;14.368;2023-01-28T14:59:59;101412.78;;;5.82;68.16
65553;BME280;52465;51.560;14.368;2023-01-28T15:02:28;101414.25;;;5.86;68.13
65553;BME280;52465;51.560;14.368;2023-01-28T15:07:54;101380.19;;;5.64;68.54
65553;BME280;52465;51.560;14.368;2023-01-28T15:10:31;101412.50;;;5.87;68.46